sensor_id;sensor_type;location;lat;lon;timestamp;P1;durP1;ratioP1;P2;durP2;ratioP2
23394;SDS011;11870;53.084;18.206;2023-07-13T00:01:51;13.25;;;10.07;;
23394;SDS011;11870;53.084;18.206;2023-07-13T00:04:18;14.93;;;9.60;;
23394;SDS011;11870;53.084;18.206;2023-07-13T00:06:45;17.27;;;10.82;;
23394;SDS011;11870;53.084;18.206;2023-07-13T00:09:12;15.30;;;11.05;;
23394;SDS011;11870;53.084;18.206;2023-07-13T00:11:39;15.90;;;11.70;;
23394;SDS011;11870;53.084;18.206;2023-07-13T00:14:06;17.35;;;11.52;;
23394;SDS011;11870;53.084;18.206;2023-07-13T00:16:34;16.52;;;10.45;;
23394;SDS011;11870;53.084;18.206;2023-07-13T00:19:00;15.82;;;9.85;;
23394;SDS011;11870;53.084;18.206;2023-07-13T00:21:26;15.10;;;10.73;;
23394;SDS011;11870;53.084;18.206;2023-07-13T00:23:53;15.80;;;10.82;;
23394;SDS011;11870;53.084;18.206;2023-07-13T00:26:19;17.90;;;10.88;;
23394;SDS011;11870;53.084;18.206;2023-07-13T00:28:46;29.38;;;13.43;;
23394;SDS011;11870;53.084;18.206;2023-07-13T00:31:12;22.30;;;12.43;;
23394;SDS011;11870;53.084;18.206;2023-07-13T00:33:42;32.40;;;13.55;;
23394;SDS011;11870;53.084;18.206;2023-07-13T00:36:08;20.20;;;13.10;;
23394;SDS011;11870;53.084;18.206;2023-07-13T00:38:35;29.13;;;12.48;;
23394;SDS011;11870;53.084;18.206;2023-07-13T00:41:02;43.88;;;14.90;;
23394;SDS011;11870;53.084;18.206;2023-07-13T00:43:29;29.52;;;12.18;;
23394;SDS011;11870;53.084;18.206;2023-07-13T00:48:23;21.23;;;12.68;;
23394;SDS011;11870;53.084;18.206;2023-07-13T00:50:52;34.75;;;12.68;;
23394;SDS011;11870;53.084;18.206;2023-07-13T00:53:19;22.30;;;12.15;;
23394;SDS011;11870;53.084;18.206;2023-07-13T00:55:50;18.08;;;11.55;;
23394;SDS011;11870;53.084;18.206;2023-07-13T00:58:17;22.63;;;12.48;;
23394;SDS011;11870;53.084;18.206;2023-07-13T01:00:43;20.40;;;11.60;;
23394;SDS011;11870;53.084;18.206;2023-07-13T01:03:11;16.05;;;10.93;;
23394;SDS011;11870;53.084;18.206;2023-07-13T01:05:38;20.52;;;12.48;;
23394;SDS011;11870;53.084;18.206;2023-07-13T01:08:04;17.50;;;11.73;;
23394;SDS011;11870;53.084;18.206;2023-07-13T01:10:31;15.52;;;10.18;;
23394;SDS011;11870;53.084;18.206;2023-07-13T01:13:08;19.33;;;11.48;;
23394;SDS011;11870;53.084;18.206;2023-07-13T01:16:03;16.63;;;10.75;;
23394;SDS011;11870;53.084;18.206;2023-07-13T01:18:25;71.38;;;12.75;;
23394;SDS011;11870;53.084;18.206;2023-07-13T01:23:21;16.38;;;10.93;;
23394;SDS011;11870;53.084;18.206;2023-07-13T01:25:48;20.60;;;12.07;;
23394;SDS011;11870;53.084;18.206;2023-07-13T01:28:14;17.08;;;11.77;;
23394;SDS011;11870;53.084;18.206;2023-07-13T01:30:42;20.45;;;11.32;;
23394;SDS011;11870;53.084;18.206;2023-07-13T01:33:11;24.80;;;11.43;;
23394;SDS011;11870;53.084;18.206;2023-07-13T01:35:37;18.88;;;11.98;;
23394;SDS011;11870;53.084;18.206;2023-07-13T01:38:04;15.45;;;10.73;;
23394;SDS011;11870;53.084;18.206;2023-07-13T01:40:31;23.95;;;12.15;;
23394;SDS011;11870;53.084;18.206;2023-07-13T01:42:58;16.75;;;11.05;;
23394;SDS011;11870;53.084;18.206;2023-07-13T01:45:24;20.02;;;11.98;;
23394;SDS011;11870;53.084;18.206;2023-07-13T01:47:51;20.98;;;11.85;;
23394;SDS011;11870;53.084;18.206;2023-07-13T01:50:17;20.60;;;10.55;;
23394;SDS011;11870;53.084;18.206;2023-07-13T01:52:44;14.32;;;10.70;;
23394;SDS011;11870;53.084;18.206;2023-07-13T01:55:10;21.35;;;11.07;;
23394;SDS011;11870;53.084;18.206;2023-07-13T01:57:36;16.38;;;9.95;;
23394;SDS011;11870;53.084;18.206;2023-07-13T02:00:04;16.23;;;11.35;;
23394;SDS011;11870;53.084;18.206;2023-07-13T02:02:31;14.88;;;9.77;;
23394;SDS011;11870;53.084;18.206;2023-07-13T02:04:58;26.95;;;10.38;;
23394;SDS011;11870;53.084;18.206;2023-07-13T02:07:24;16.23;;;10.27;;
23394;SDS011;11870;53.084;18.206;2023-07-13T02:09:50;20.80;;;12.77;;
23394;SDS011;11870;53.084;18.206;2023-07-13T02:12:17;20.27;;;11.25;;
23394;SDS011;11870;53.084;18.206;2023-07-13T02:14:43;18.15;;;10.50;;
23394;SDS011;11870;53.084;18.206;2023-07-13T02:17:09;25.05;;;11.85;;
23394;SDS011;11870;53.084;18.206;2023-07-13T02:19:36;19.35;;;11.80;;
23394;SDS011;11870;53.084;18.206;2023-07-13T02:22:02;20.95;;;11.60;;
23394;SDS011;11870;53.084;18.206;2023-07-13T02:24:29;25.58;;;12.15;;
23394;SDS011;11870;53.084;18.206;2023-07-13T02:26:55;17.63;;;11.00;;
23394;SDS011;11870;53.084;18.206;2023-07-13T02:29:22;23.33;;;11.95;;
23394;SDS011;11870;53.084;18.206;2023-07-13T02:31:48;18.20;;;11.50;;
23394;SDS011;11870;53.084;18.206;2023-07-13T02:34:15;48.10;;;13.30;;
23394;SDS011;11870;53.084;18.206;2023-07-13T02:36:41;27.33;;;11.23;;
23394;SDS011;11870;53.084;18.206;2023-07-13T02:39:07;22.20;;;11.82;;
23394;SDS011;11870;53.084;18.206;2023-07-13T02:41:34;28.83;;;11.98;;
23394;SDS011;11870;53.084;18.206;2023-07-13T02:44:01;22.35;;;11.32;;
23394;SDS011;11870;53.084;18.206;2023-07-13T02:46:32;22.83;;;11.50;;
23394;SDS011;11870;53.084;18.206;2023-07-13T02:48:59;26.05;;;12.70;;
23394;SDS011;11870;53.084;18.206;2023-07-13T02:51:26;23.35;;;11.73;;
23394;SDS011;11870;53.084;18.206;2023-07-13T02:53:52;20.58;;;12.30;;
23394;SDS011;11870;53.084;18.206;2023-07-13T02:56:21;17.90;;;11.25;;
23394;SDS011;11870;53.084;18.206;2023-07-13T02:58:48;20.02;;;12.63;;
23394;SDS011;11870;53.084;18.206;2023-07-13T03:01:14;21.00;;;12.88;;
23394;SDS011;11870;53.084;18.206;2023-07-13T03:03:43;22.02;;;12.30;;
23394;SDS011;11870;53.084;18.206;2023-07-13T03:06:09;19.88;;;11.63;;
23394;SDS011;11870;53.084;18.206;2023-07-13T03:08:36;24.20;;;13.43;;
23394;SDS011;11870;53.084;18.206;2023-07-13T03:11:03;20.98;;;11.23;;
23394;SDS011;11870;53.084;18.206;2023-07-13T03:13:30;19.48;;;12.68;;
23394;SDS011;11870;53.084;18.206;2023-07-13T03:15:56;24.65;;;13.60;;
23394;SDS011;11870;53.084;18.206;2023-07-13T03:18:23;26.08;;;13.45;;
23394;SDS011;11870;53.084;18.206;2023-07-13T03:20:50;17.80;;;10.80;;
23394;SDS011;11870;53.084;18.206;2023-07-13T03:23:17;19.15;;;11.45;;
23394;SDS011;11870;53.084;18.206;2023-07-13T03:25:43;22.48;;;12.55;;
23394;SDS011;11870;53.084;18.206;2023-07-13T03:28:11;23.23;;;12.77;;
23394;SDS011;11870;53.084;18.206;2023-07-13T03:30:37;27.50;;;12.60;;
23394;SDS011;11870;53.084;18.206;2023-07-13T03:33:04;25.95;;;14.23;;
23394;SDS011;11870;53.084;18.206;2023-07-13T03:35:30;31.10;;;15.20;;
23394;SDS011;11870;53.084;18.206;2023-07-13T03:37:58;29.42;;;15.85;;
23394;SDS011;11870;53.084;18.206;2023-07-13T03:40:25;29.00;;;16.08;;
23394;SDS011;11870;53.084;18.206;2023-07-13T03:42:52;30.33;;;16.48;;
23394;SDS011;11870;53.084;18.206;2023-07-13T03:45:18;42.65;;;22.55;;
23394;SDS011;11870;53.084;18.206;2023-07-13T03:47:45;32.78;;;16.27;;
23394;SDS011;11870;53.084;18.206;2023-07-13T03:50:11;26.67;;;15.70;;
23394;SDS011;11870;53.084;18.206;2023-07-13T03:52:37;29.45;;;15.77;;
23394;SDS011;11870;53.084;18.206;2023-07-13T03:55:04;26.98;;;15.27;;
23394;SDS011;11870;53.084;18.206;2023-07-13T03:57:32;33.15;;;16.90;;
23394;SDS011;11870;53.084;18.206;2023-07-13T04:00:00;34.58;;;16.92;;
23394;SDS011;11870;53.084;18.206;2023-07-13T04:02:26;32.15;;;16.67;;
23394;SDS011;11870;53.084;18.206;2023-07-13T04:04:53;31.20;;;15.18;;
23394;SDS011;11870;53.084;18.206;2023-07-13T04:07:19;30.55;;;15.43;;
23394;SDS011;11870;53.084;18.206;2023-07-13T04:09:46;27.52;;;15.02;;
23394;SDS011;11870;53.084;18.206;2023-07-13T04:12:12;30.48;;;17.90;;
23394;SDS011;11870;53.084;18.206;2023-07-13T04:14:39;36.65;;;19.17;;
23394;SDS011;11870;53.084;18.206;2023-07-13T04:17:05;34.05;;;17.45;;
23394;SDS011;11870;53.084;18.206;2023-07-13T04:19:32;27.65;;;15.77;;
23394;SDS011;11870;53.084;18.206;2023-07-13T04:21:58;28.42;;;14.90;;
23394;SDS011;11870;53.084;18.206;2023-07-13T04:24:25;25.58;;;16.55;;
23394;SDS011;11870;53.084;18.206;2023-07-13T04:26:51;25.88;;;15.45;;
23394;SDS011;11870;53.084;18.206;2023-07-13T04:29:18;35.50;;;17.45;;
23394;SDS011;11870;53.084;18.206;2023-07-13T04:31:44;31.08;;;16.85;;
23394;SDS011;11870;53.084;18.206;2023-07-13T04:34:10;28.38;;;16.55;;
23394;SDS011;11870;53.084;18.206;2023-07-13T04:36:37;31.85;;;16.10;;
23394;SDS011;11870;53.084;18.206;2023-07-13T04:39:03;27.60;;;16.77;;
23394;SDS011;11870;53.084;18.206;2023-07-13T04:41:29;30.38;;;18.77;;
23394;SDS011;11870;53.084;18.206;2023-07-13T04:43:56;36.20;;;22.20;;
23394;SDS011;11870;53.084;18.206;2023-07-13T04:46:22;52.20;;;29.25;;
23394;SDS011;11870;53.084;18.206;2023-07-13T04:48:48;49.53;;;29.08;;
23394;SDS011;11870;53.084;18.206;2023-07-13T04:51:16;52.95;;;32.13;;
23394;SDS011;11870;53.084;18.206;2023-07-13T04:53:42;48.58;;;29.95;;
23394;SDS011;11870;53.084;18.206;2023-07-13T04:56:09;47.33;;;31.15;;
23394;SDS011;11870;53.084;18.206;2023-07-13T04:58:35;36.47;;;27.13;;
23394;SDS011;11870;53.084;18.206;2023-07-13T05:01:03;25.80;;;18.98;;
23394;SDS011;11870;53.084;18.206;2023-07-13T05:03:30;16.75;;;11.38;;
23394;SDS011;11870;53.084;18.206;2023-07-13T05:06:04;13.52;;;8.00;;
23394;SDS011;11870;53.084;18.206;2023-07-13T05:08:31;12.40;;;8.10;;
23394;SDS011;11870;53.084;18.206;2023-07-13T05:11:04;11.40;;;7.65;;
23394;SDS011;11870;53.084;18.206;2023-07-13T05:13:30;13.40;;;7.35;;
23394;SDS011;11870;53.084;18.206;2023-07-13T05:15:58;11.20;;;6.90;;
23394;SDS011;11870;53.084;18.206;2023-07-13T05:18:25;13.40;;;6.90;;
23394;SDS011;11870;53.084;18.206;2023-07-13T05:20:59;11.65;;;7.68;;
23394;SDS011;11870;53.084;18.206;2023-07-13T05:23:27;11.65;;;6.70;;
23394;SDS011;11870;53.084;18.206;2023-07-13T05:25:54;10.90;;;6.50;;
23394;SDS011;11870;53.084;18.206;2023-07-13T05:28:20;12.23;;;6.20;;
23394;SDS011;11870;53.084;18.206;2023-07-13T05:30:47;10.98;;;6.60;;
23394;SDS011;11870;53.084;18.206;2023-07-13T05:33:13;9.85;;;6.30;;
23394;SDS011;11870;53.084;18.206;2023-07-13T05:35:40;9.55;;;5.55;;
23394;SDS011;11870;53.084;18.206;2023-07-13T05:38:06;7.90;;;4.88;;
23394;SDS011;11870;53.084;18.206;2023-07-13T05:40:33;8.43;;;5.20;;
23394;SDS011;11870;53.084;18.206;2023-07-13T05:42:59;8.73;;;5.47;;
23394;SDS011;11870;53.084;18.206;2023-07-13T05:45:26;7.63;;;5.22;;
23394;SDS011;11870;53.084;18.206;2023-07-13T05:47:52;7.25;;;5.70;;
23394;SDS011;11870;53.084;18.206;2023-07-13T05:50:19;9.35;;;5.95;;
23394;SDS011;11870;53.084;18.206;2023-07-13T05:52:46;9.40;;;6.03;;
23394;SDS011;11870;53.084;18.206;2023-07-13T05:55:13;5.38;;;3.97;;
23394;SDS011;11870;53.084;18.206;2023-07-13T05:57:39;7.32;;;3.33;;
23394;SDS011;11870;53.084;18.206;2023-07-13T06:00:06;6.50;;;3.10;;
23394;SDS011;11870;53.084;18.206;2023-07-13T06:02:32;6.90;;;3.05;;
23394;SDS011;11870;53.084;18.206;2023-07-13T06:04:59;5.18;;;2.60;;
23394;SDS011;11870;53.084;18.206;2023-07-13T06:07:25;7.15;;;2.75;;
23394;SDS011;11870;53.084;18.206;2023-07-13T06:09:51;5.68;;;2.50;;
23394;SDS011;11870;53.084;18.206;2023-07-13T06:12:18;6.57;;;2.95;;
23394;SDS011;11870;53.084;18.206;2023-07-13T06:14:44;6.05;;;2.50;;
23394;SDS011;11870;53.084;18.206;2023-07-13T06:17:11;3.92;;;2.67;;
23394;SDS011;11870;53.084;18.206;2023-07-13T06:19:37;6.47;;;2.85;;
23394;SDS011;11870;53.084;18.206;2023-07-13T06:22:03;6.45;;;2.80;;
23394;SDS011;11870;53.084;18.206;2023-07-13T06:24:30;7.95;;;2.80;;
23394;SDS011;11870;53.084;18.206;2023-07-13T06:26:56;5.28;;;2.38;;
23394;SDS011;11870;53.084;18.206;2023-07-13T06:29:22;7.47;;;2.58;;
23394;SDS011;11870;53.084;18.206;2023-07-13T06:31:49;7.00;;;2.20;;
23394;SDS011;11870;53.084;18.206;2023-07-13T06:34:15;6.93;;;2.10;;
23394;SDS011;11870;53.084;18.206;2023-07-13T06:36:41;5.63;;;2.40;;
23394;SDS011;11870;53.084;18.206;2023-07-13T06:39:08;7.00;;;2.15;;
23394;SDS011;11870;53.084;18.206;2023-07-13T06:41:34;5.78;;;2.40;;
23394;SDS011;11870;53.084;18.206;2023-07-13T06:44:01;5.82;;;2.17;;
23394;SDS011;11870;53.084;18.206;2023-07-13T06:46:28;4.55;;;2.05;;
23394;SDS011;11870;53.084;18.206;2023-07-13T06:48:55;6.63;;;2.13;;
23394;SDS011;11870;53.084;18.206;2023-07-13T06:51:21;4.22;;;2.05;;
23394;SDS011;11870;53.084;18.206;2023-07-13T06:53:48;3.85;;;1.95;;
23394;SDS011;11870;53.084;18.206;2023-07-13T06:56:15;6.38;;;2.15;;
23394;SDS011;11870;53.084;18.206;2023-07-13T06:58:41;7.53;;;2.00;;
23394;SDS011;11870;53.084;18.206;2023-07-13T07:01:08;6.15;;;1.90;;
23394;SDS011;11870;53.084;18.206;2023-07-13T07:03:35;3.60;;;2.10;;
23394;SDS011;11870;53.084;18.206;2023-07-13T07:06:02;6.32;;;2.30;;
23394;SDS011;11870;53.084;18.206;2023-07-13T07:08:38;4.82;;;2.05;;
23394;SDS011;11870;53.084;18.206;2023-07-13T07:11:05;6.13;;;2.50;;
23394;SDS011;11870;53.084;18.206;2023-07-13T07:13:31;5.60;;;2.15;;
23394;SDS011;11870;53.084;18.206;2023-07-13T07:15:57;3.50;;;1.75;;
23394;SDS011;11870;53.084;18.206;2023-07-13T07:18:25;5.68;;;2.10;;
23394;SDS011;11870;53.084;18.206;2023-07-13T07:20:51;5.20;;;2.25;;
23394;SDS011;11870;53.084;18.206;2023-07-13T07:23:18;3.75;;;2.00;;
23394;SDS011;11870;53.084;18.206;2023-07-13T07:25:44;4.97;;;2.15;;
23394;SDS011;11870;53.084;18.206;2023-07-13T07:28:12;5.55;;;2.60;;
23394;SDS011;11870;53.084;18.206;2023-07-13T07:30:47;4.28;;;2.00;;
23394;SDS011;11870;53.084;18.206;2023-07-13T07:33:14;3.78;;;2.10;;
23394;SDS011;11870;53.084;18.206;2023-07-13T07:35:42;4.20;;;2.08;;
23394;SDS011;11870;53.084;18.206;2023-07-13T07:38:09;6.13;;;2.40;;
23394;SDS011;11870;53.084;18.206;2023-07-13T07:40:39;7.75;;;2.47;;
23394;SDS011;11870;53.084;18.206;2023-07-13T07:43:09;5.68;;;2.33;;
23394;SDS011;11870;53.084;18.206;2023-07-13T07:45:37;4.22;;;2.00;;
23394;SDS011;11870;53.084;18.206;2023-07-13T07:48:04;5.07;;;2.03;;
23394;SDS011;11870;53.084;18.206;2023-07-13T07:50:30;4.45;;;2.17;;
23394;SDS011;11870;53.084;18.206;2023-07-13T07:52:57;5.60;;;2.20;;
23394;SDS011;11870;53.084;18.206;2023-07-13T07:55:24;4.28;;;1.95;;
23394;SDS011;11870;53.084;18.206;2023-07-13T07:57:52;4.78;;;2.28;;
23394;SDS011;11870;53.084;18.206;2023-07-13T08:00:18;4.95;;;2.25;;
23394;SDS011;11870;53.084;18.206;2023-07-13T08:02:45;4.80;;;2.10;;
23394;SDS011;11870;53.084;18.206;2023-07-13T08:05:11;3.95;;;2.10;;
23394;SDS011;11870;53.084;18.206;2023-07-13T08:07:38;3.78;;;1.90;;
23394;SDS011;11870;53.084;18.206;2023-07-13T08:10:05;4.38;;;2.15;;
23394;SDS011;11870;53.084;18.206;2023-07-13T08:12:36;5.75;;;2.47;;
23394;SDS011;11870;53.084;18.206;2023-07-13T08:15:03;3.85;;;2.03;;
23394;SDS011;11870;53.084;18.206;2023-07-13T08:17:30;6.82;;;2.33;;
23394;SDS011;11870;53.084;18.206;2023-07-13T08:19:57;4.15;;;2.00;;
23394;SDS011;11870;53.084;18.206;2023-07-13T08:22:23;4.75;;;2.10;;
23394;SDS011;11870;53.084;18.206;2023-07-13T08:24:49;4.68;;;2.20;;
23394;SDS011;11870;53.084;18.206;2023-07-13T08:27:21;3.75;;;1.90;;
23394;SDS011;11870;53.084;18.206;2023-07-13T08:29:48;4.72;;;2.03;;
23394;SDS011;11870;53.084;18.206;2023-07-13T08:32:15;3.70;;;2.08;;
23394;SDS011;11870;53.084;18.206;2023-07-13T08:34:41;5.20;;;2.10;;
23394;SDS011;11870;53.084;18.206;2023-07-13T08:37:07;7.22;;;2.22;;
23394;SDS011;11870;53.084;18.206;2023-07-13T08:39:34;4.75;;;2.08;;
23394;SDS011;11870;53.084;18.206;2023-07-13T08:42:26;3.88;;;2.15;;
23394;SDS011;11870;53.084;18.206;2023-07-13T08:50:22;4.80;;;2.20;;
23394;SDS011;11870;53.084;18.206;2023-07-13T08:52:53;3.47;;;2.15;;
23394;SDS011;11870;53.084;18.206;2023-07-13T08:55:22;6.00;;;2.28;;
23394;SDS011;11870;53.084;18.206;2023-07-13T08:57:56;6.05;;;2.78;;
23394;SDS011;11870;53.084;18.206;2023-07-13T09:00:32;3.55;;;2.15;;
23394;SDS011;11870;53.084;18.206;2023-07-13T09:03:06;3.15;;;2.10;;
23394;SDS011;11870;53.084;18.206;2023-07-13T09:05:47;4.63;;;2.35;;
23394;SDS011;11870;53.084;18.206;2023-07-13T09:08:26;5.05;;;2.33;;
23394;SDS011;11870;53.084;18.206;2023-07-13T09:11:29;4.18;;;2.65;;
23394;SDS011;11870;53.084;18.206;2023-07-13T09:13:59;8.40;;;3.60;;
23394;SDS011;11870;53.084;18.206;2023-07-13T09:16:45;6.63;;;4.55;;
23394;SDS011;11870;53.084;18.206;2023-07-13T09:19:14;6.00;;;4.53;;
23394;SDS011;11870;53.084;18.206;2023-07-13T09:21:54;7.47;;;2.50;;
23394;SDS011;11870;53.084;18.206;2023-07-13T09:26:48;5.82;;;2.70;;
23394;SDS011;11870;53.084;18.206;2023-07-13T09:29:19;4.35;;;2.40;;
23394;SDS011;11870;53.084;18.206;2023-07-13T09:31:53;3.80;;;2.30;;
23394;SDS011;11870;53.084;18.206;2023-07-13T09:34:20;9.00;;;2.33;;
23394;SDS011;11870;53.084;18.206;2023-07-13T09:36:46;4.40;;;2.47;;
23394;SDS011;11870;53.084;18.206;2023-07-13T09:39:14;4.05;;;2.10;;
23394;SDS011;11870;53.084;18.206;2023-07-13T09:44:28;5.90;;;2.92;;
23394;SDS011;11870;53.084;18.206;2023-07-13T09:46:56;4.47;;;2.55;;
23394;SDS011;11870;53.084;18.206;2023-07-13T09:49:24;5.57;;;2.88;;
23394;SDS011;11870;53.084;18.206;2023-07-13T09:52:05;6.60;;;2.72;;
23394;SDS011;11870;53.084;18.206;2023-07-13T09:54:35;11.52;;;3.00;;
23394;SDS011;11870;53.084;18.206;2023-07-13T09:57:03;7.57;;;2.83;;
23394;SDS011;11870;53.084;18.206;2023-07-13T09:59:32;8.95;;;3.13;;
23394;SDS011;11870;53.084;18.206;2023-07-13T10:02:01;6.55;;;3.08;;
23394;SDS011;11870;53.084;18.206;2023-07-13T10:04:29;4.65;;;3.15;;
23394;SDS011;11870;53.084;18.206;2023-07-13T10:07:06;6.18;;;3.35;;
23394;SDS011;11870;53.084;18.206;2023-07-13T10:09:34;7.55;;;3.83;;
23394;SDS011;11870;53.084;18.206;2023-07-13T10:12:01;4.63;;;3.05;;
23394;SDS011;11870;53.084;18.206;2023-07-13T10:14:28;3.75;;;2.90;;
23394;SDS011;11870;53.084;18.206;2023-07-13T10:16:58;6.45;;;2.92;;
23394;SDS011;11870;53.084;18.206;2023-07-13T10:19:31;12.20;;;3.85;;
23394;SDS011;11870;53.084;18.206;2023-07-13T10:22:00;7.90;;;3.33;;
23394;SDS011;11870;53.084;18.206;2023-07-13T10:24:29;5.85;;;3.67;;
23394;SDS011;11870;53.084;18.206;2023-07-13T10:27:00;5.45;;;3.03;;
23394;SDS011;11870;53.084;18.206;2023-07-13T10:29:29;7.38;;;3.25;;
23394;SDS011;11870;53.084;18.206;2023-07-13T10:31:58;8.60;;;4.18;;
23394;SDS011;11870;53.084;18.206;2023-07-13T10:34:25;7.13;;;3.75;;
23394;SDS011;11870;53.084;18.206;2023-07-13T10:36:52;10.05;;;4.03;;
23394;SDS011;11870;53.084;18.206;2023-07-13T10:39:20;6.80;;;3.50;;
23394;SDS011;11870;53.084;18.206;2023-07-13T10:41:53;6.00;;;3.50;;
23394;SDS011;11870;53.084;18.206;2023-07-13T10:44:24;7.88;;;3.47;;
23394;SDS011;11870;53.084;18.206;2023-07-13T10:47:06;6.45;;;3.30;;
23394;SDS011;11870;53.084;18.206;2023-07-13T10:49:34;7.18;;;3.70;;
23394;SDS011;11870;53.084;18.206;2023-07-13T10:52:02;7.70;;;3.63;;
23394;SDS011;11870;53.084;18.206;2023-07-13T10:59:36;5.47;;;3.28;;
23394;SDS011;11870;53.084;18.206;2023-07-13T11:05:14;5.95;;;3.47;;
23394;SDS011;11870;53.084;18.206;2023-07-13T11:07:29;6.40;;;3.00;;
23394;SDS011;11870;53.084;18.206;2023-07-13T11:09:59;6.22;;;3.03;;
23394;SDS011;11870;53.084;18.206;2023-07-13T11:15:42;3.55;;;2.55;;
23394;SDS011;11870;53.084;18.206;2023-07-13T11:18:19;5.05;;;2.90;;
23394;SDS011;11870;53.084;18.206;2023-07-13T11:20:45;5.13;;;2.80;;
23394;SDS011;11870;53.084;18.206;2023-07-13T11:25:42;4.30;;;2.20;;
23394;SDS011;11870;53.084;18.206;2023-07-13T11:36:06;2.42;;;1.85;;
23394;SDS011;11870;53.084;18.206;2023-07-13T11:38:40;6.60;;;2.53;;
23394;SDS011;11870;53.084;18.206;2023-07-13T11:41:31;5.07;;;2.15;;
23394;SDS011;11870;53.084;18.206;2023-07-13T11:44:05;4.82;;;2.50;;
23394;SDS011;11870;53.084;18.206;2023-07-13T11:46:31;3.85;;;2.72;;
23394;SDS011;11870;53.084;18.206;2023-07-13T11:48:58;4.82;;;2.53;;
23394;SDS011;11870;53.084;18.206;2023-07-13T11:51:29;4.68;;;2.58;;
23394;SDS011;11870;53.084;18.206;2023-07-13T11:53:56;3.42;;;2.55;;
23394;SDS011;11870;53.084;18.206;2023-07-13T11:56:24;6.28;;;2.40;;
23394;SDS011;11870;53.084;18.206;2023-07-13T11:58:51;6.28;;;2.60;;
23394;SDS011;11870;53.084;18.206;2023-07-13T12:01:23;4.25;;;2.50;;
23394;SDS011;11870;53.084;18.206;2023-07-13T12:03:49;6.18;;;2.53;;
23394;SDS011;11870;53.084;18.206;2023-07-13T12:06:22;4.40;;;2.17;;
23394;SDS011;11870;53.084;18.206;2023-07-13T12:08:57;4.95;;;2.60;;
23394;SDS011;11870;53.084;18.206;2023-07-13T12:14:25;5.15;;;2.20;;
23394;SDS011;11870;53.084;18.206;2023-07-13T12:16:52;3.88;;;2.35;;
23394;SDS011;11870;53.084;18.206;2023-07-13T12:19:23;6.32;;;2.30;;
23394;SDS011;11870;53.084;18.206;2023-07-13T12:21:55;2.80;;;2.10;;
23394;SDS011;11870;53.084;18.206;2023-07-13T12:24:22;4.82;;;1.92;;
23394;SDS011;11870;53.084;18.206;2023-07-13T12:26:50;4.13;;;1.92;;
23394;SDS011;11870;53.084;18.206;2023-07-13T12:29:21;4.65;;;2.10;;
23394;SDS011;11870;53.084;18.206;2023-07-13T12:31:49;3.05;;;1.77;;
23394;SDS011;11870;53.084;18.206;2023-07-13T12:34:17;4.28;;;2.20;;
23394;SDS011;11870;53.084;18.206;2023-07-13T12:48:39;2.40;;;1.75;;
23394;SDS011;11870;53.084;18.206;2023-07-13T12:55:44;4.05;;;2.40;;
23394;SDS011;11870;53.084;18.206;2023-07-13T12:58:18;4.10;;;1.80;;
23394;SDS011;11870;53.084;18.206;2023-07-13T13:01:12;4.95;;;2.00;;
23394;SDS011;11870;53.084;18.206;2023-07-13T13:03:44;5.15;;;1.75;;
23394;SDS011;11870;53.084;18.206;2023-07-13T13:08:45;3.65;;;2.13;;
23394;SDS011;11870;53.084;18.206;2023-07-13T13:11:14;3.13;;;1.67;;
23394;SDS011;11870;53.084;18.206;2023-07-13T13:13:44;8.85;;;2.30;;
23394;SDS011;11870;53.084;18.206;2023-07-13T13:16:16;7.03;;;2.40;;
23394;SDS011;11870;53.084;18.206;2023-07-13T13:18:58;8.73;;;2.55;;
23394;SDS011;11870;53.084;18.206;2023-07-13T13:21:28;7.43;;;3.00;;
23394;SDS011;11870;53.084;18.206;2023-07-13T13:23:55;5.28;;;2.88;;
23394;SDS011;11870;53.084;18.206;2023-07-13T13:26:21;4.38;;;2.60;;
23394;SDS011;11870;53.084;18.206;2023-07-13T13:28:48;6.85;;;3.25;;
23394;SDS011;11870;53.084;18.206;2023-07-13T13:31:14;8.13;;;4.28;;
23394;SDS011;11870;53.084;18.206;2023-07-13T13:33:42;7.63;;;3.35;;
23394;SDS011;11870;53.084;18.206;2023-07-13T13:36:14;7.20;;;3.50;;
23394;SDS011;11870;53.084;18.206;2023-07-13T13:38:45;5.75;;;3.28;;
23394;SDS011;11870;53.084;18.206;2023-07-13T13:41:12;6.90;;;3.45;;
23394;SDS011;11870;53.084;18.206;2023-07-13T13:43:41;6.63;;;3.67;;
23394;SDS011;11870;53.084;18.206;2023-07-13T13:46:13;6.28;;;3.28;;
23394;SDS011;11870;53.084;18.206;2023-07-13T13:48:44;4.32;;;3.17;;
23394;SDS011;11870;53.084;18.206;2023-07-13T13:51:17;5.88;;;3.45;;
23394;SDS011;11870;53.084;18.206;2023-07-13T13:53:45;4.22;;;3.28;;
23394;SDS011;11870;53.084;18.206;2023-07-13T13:56:12;4.88;;;3.47;;
23394;SDS011;11870;53.084;18.206;2023-07-13T13:58:43;6.22;;;3.10;;
23394;SDS011;11870;53.084;18.206;2023-07-13T14:01:14;6.80;;;2.78;;
23394;SDS011;11870;53.084;18.206;2023-07-13T14:03:43;3.55;;;2.60;;
23394;SDS011;11870;53.084;18.206;2023-07-13T14:06:13;3.88;;;2.90;;
23394;SDS011;11870;53.084;18.206;2023-07-13T14:08:41;8.20;;;3.13;;
23394;SDS011;11870;53.084;18.206;2023-07-13T14:11:17;4.60;;;2.72;;
23394;SDS011;11870;53.084;18.206;2023-07-13T14:13:48;4.57;;;2.90;;
23394;SDS011;11870;53.084;18.206;2023-07-13T14:16:16;5.43;;;2.90;;
23394;SDS011;11870;53.084;18.206;2023-07-13T14:18:44;5.05;;;2.63;;
23394;SDS011;11870;53.084;18.206;2023-07-13T14:21:12;5.85;;;3.00;;
23394;SDS011;11870;53.084;18.206;2023-07-13T14:23:39;4.47;;;2.65;;
23394;SDS011;11870;53.084;18.206;2023-07-13T14:26:13;4.80;;;2.83;;
23394;SDS011;11870;53.084;18.206;2023-07-13T14:28:48;5.22;;;2.63;;
23394;SDS011;11870;53.084;18.206;2023-07-13T14:31:16;7.68;;;2.50;;
23394;SDS011;11870;53.084;18.206;2023-07-13T14:33:43;4.18;;;2.58;;
23394;SDS011;11870;53.084;18.206;2023-07-13T14:36:24;6.07;;;2.78;;
23394;SDS011;11870;53.084;18.206;2023-07-13T14:38:57;3.92;;;2.72;;
23394;SDS011;11870;53.084;18.206;2023-07-13T14:41:23;3.55;;;2.30;;
23394;SDS011;11870;53.084;18.206;2023-07-13T14:43:50;3.95;;;2.40;;
23394;SDS011;11870;53.084;18.206;2023-07-13T14:46:30;3.75;;;2.40;;
23394;SDS011;11870;53.084;18.206;2023-07-13T14:49:12;5.80;;;2.50;;
23394;SDS011;11870;53.084;18.206;2023-07-13T14:51:56;4.43;;;2.28;;
23394;SDS011;11870;53.084;18.206;2023-07-13T14:54:24;6.72;;;2.75;;
23394;SDS011;11870;53.084;18.206;2023-07-13T14:56:51;5.00;;;2.53;;
23394;SDS011;11870;53.084;18.206;2023-07-13T14:59:17;3.63;;;2.25;;
23394;SDS011;11870;53.084;18.206;2023-07-13T15:01:44;3.72;;;2.40;;
23394;SDS011;11870;53.084;18.206;2023-07-13T15:04:12;4.55;;;2.33;;
23394;SDS011;11870;53.084;18.206;2023-07-13T15:06:58;2.70;;;2.30;;
23394;SDS011;11870;53.084;18.206;2023-07-13T15:09:26;7.00;;;2.20;;
23394;SDS011;11870;53.084;18.206;2023-07-13T15:11:54;4.22;;;2.10;;
23394;SDS011;11870;53.084;18.206;2023-07-13T15:14:21;3.17;;;2.10;;
23394;SDS011;11870;53.084;18.206;2023-07-13T15:16:49;3.33;;;2.30;;
23394;SDS011;11870;53.084;18.206;2023-07-13T15:19:19;2.70;;;2.10;;
23394;SDS011;11870;53.084;18.206;2023-07-13T15:21:46;2.95;;;2.03;;
23394;SDS011;11870;53.084;18.206;2023-07-13T15:24:13;5.10;;;2.40;;
23394;SDS011;11870;53.084;18.206;2023-07-13T15:26:40;4.20;;;2.53;;
23394;SDS011;11870;53.084;18.206;2023-07-13T15:29:11;4.45;;;2.38;;
23394;SDS011;11870;53.084;18.206;2023-07-13T15:31:37;3.88;;;2.40;;
23394;SDS011;11870;53.084;18.206;2023-07-13T15:34:12;4.57;;;2.42;;